Time;durP1;ratioP1;P1;durP2;ratioP2;P2;SDS_P1;SDS_P2;PMS_P1;PMS_P2;Temp;Humidity;BMP_temperature;BMP_pressure;BME280_temperature;BME280_humidity;BME280_pressure;Samples;Min_cycle;Max_cycle;Signal;HPM_P1;HPM_P2
2021/05/21 04:17:07;;;;;;;5.45;2.90;;;;;;;8.54;85.73;98435.69;5121907;23;20099;-69
2021/05/21 04:19:33;;;;;;;6.35;2.10;;;;;;;8.51;85.23;98421.13;4917467;29;20040;-69
2021/05/21 04:21:58;;;;;;;2.80;2.42;;;;;;;8.62;85.12;98413.19;4934334;29;20031;-69
2021/05/21 04:24:23;;;;;;;3.85;2.20;;;;;;;8.67;85.36;98411.41;4934510;29;20027;-69
2021/05/21 04:26:49;;;;;;;5.13;2.70;;;;;;;8.74;84.99;98425.91;4917235;29;20020;-69
2021/05/21 04:29:14;;;;;;;6.75;2.88;;;;;;;8.64;85.50;98414.00;4934373;29;20032;-69
2021/05/21 04:31:39;;;;;;;2.65;2.45;;;;;;;8.60;85.22;98412.34;4972137;23;20054;-74
2021/05/21 04:34:04;;;;;;;5.75;2.58;;;;;;;8.66;85.69;98407.13;4934307;29;20086;-76
2021/05/21 04:36:30;;;;;;;3.33;2.63;;;;;;;8.60;86.18;98409.78;4917067;29;20035;-71
2021/05/21 04:38:55;;;;;;;5.55;2.75;;;;;;;8.81;85.29;98409.44;4934445;29;20111;-76
2021/05/21 04:41:20;;;;;;;6.18;2.97;;;;;;;8.77;84.67;98410.38;4934160;29;20028;-73
2021/05/21 04:43:46;;;;;;;7.88;2.42;;;;;;;8.78;85.21;98416.38;4934520;29;20024;-72
2021/05/21 04:46:12;;;;;;;7.15;3.08;;;;;;;8.93;84.35;98409.22;4936816;29;20497;-78
2021/05/21 04:48:38;;;;;;;10.02;2.90;;;;;;;8.88;84.20;98418.78;4937721;29;20027;-75
2021/05/21 04:51:03;;;;;;;3.92;2.80;;;;;;;9.09;83.92;98411.53;4937538;29;20075;-72
2021/05/21 04:53:29;;;;;;;3.22;2.70;;;;;;;9.25;83.00;98410.38;4936889;29;20062;-73
2021/05/21 04:55:54;;;;;;;8.27;2.90;;;;;;;9.26;82.41;98414.66;4937448;29;20027;-73
2021/05/21 04:58:19;;;;;;;5.80;2.67;;;;;;;9.34;81.85;98401.59;4937509;29;20548;-73
2021/05/21 05:00:45;;;;;;;3.78;2.70;;;;;;;9.45;81.20;98404.81;4937363;29;20032;-73
2021/05/21 05:03:15;;;;;;;3.72;2.20;;;;;;;9.49;80.72;98396.97;4937505;29;20032;-76
2021/05/21 05:05:41;;;;;;;6.63;2.47;;;;;;;9.49;80.19;98402.16;4937477;29;20024;-75
2021/05/21 05:08:06;;;;;;;2.70;2.50;;;;;;;9.52;80.62;98391.75;4937421;29;20032;-75
2021/05/21 05:10:31;;;;;;;2.78;2.50;;;;;;;9.61;80.89;98384.69;4937303;29;20058;-74
2021/05/21 05:12:57;;;;;;;8.85;2.90;;;;;;;9.57;80.39;98372.69;4937284;29;20031;-76
2021/05/21 05:15:23;;;;;;;9.52;3.00;;;;;;;9.53;81.02;98372.78;4937230;29;20039;-72
2021/05/21 05:17:50;;;;;;;4.85;2.70;;;;;;;9.65;80.54;98370.81;4936934;29;20070;-73
2021/05/21 05:20:16;;;;;;;6.38;2.80;;;;;;;9.71;80.03;98373.25;4937028;29;20103;-73
2021/05/21 05:22:42;;;;;;;6.60;3.03;;;;;;;9.87;79.56;98364.28;4937062;29;20473;-74
2021/05/21 05:25:09;;;;;;;8.75;3.42;;;;;;;9.76;80.10;98361.06;4937062;29;20477;-76
2021/05/21 05:27:34;;;;;;;5.60;3.55;;;;;;;9.79;80.53;98356.69;4936818;29;20019;-75
2021/05/21 05:30:00;;;;;;;3.92;3.53;;;;;;;9.85;80.47;98358.28;4937056;29;20032;-71
2021/05/21 05:32:26;;;;;;;4.88;3.53;;;;;;;10.04;79.68;98357.00;4936759;29;20027;-75
2021/05/21 05:34:51;;;;;;;12.80;3.15;;;;;;;9.94;79.87;98352.91;4936803;29;20051;-75
2021/05/21 05:37:16;;;;;;;5.47;3.10;;;;;;;10.19;79.55;98347.16;4936669;29;20074;-72
2021/05/21 05:39:43;;;;;;;7.78;3.75;;;;;;;10.32;78.72;98338.25;4936785;29;20027;-73
2021/05/21 05:42:08;;;;;;;4.63;3.30;;;;;;;10.60;77.77;98337.59;4936618;29;20112;-72
2021/05/21 05:44:33;;;;;;;9.98;3.40;;;;;;;10.61;77.32;98334.09;4936764;29;20050;-73
2021/05/21 05:46:59;;;;;;;7.35;3.00;;;;;;;10.63;78.01;98342.69;4936475;29;20405;-74
2021/05/21 05:49:24;;;;;;;7.65;5.07;;;;;;;10.42;78.57;98331.97;4936613;29;20035;-72
2021/05/21 05:51:49;;;;;;;7.15;3.30;;;;;;;10.34;78.49;98331.31;4936560;29;20027;-72
2021/05/21 05:54:14;;;;;;;7.28;4.15;;;;;;;10.32;79.23;98330.50;4936492;29;20059;-73
2021/05/21 05:56:40;;;;;;;13.93;5.05;;;;;;;10.30;79.51;98324.53;4936282;29;20052;-73
2021/05/21 05:59:05;;;;;;;5.65;2.80;;;;;;;10.30;79.53;98327.09;4936470;29;20541;-74
2021/05/21 06:01:30;;;;;;;6.85;3.20;;;;;;;10.39;79.35;98324.25;4919424;29;20032;-76
2021/05/21 06:03:56;;;;;;;3.97;2.75;;;;;;;10.62;78.08;98325.44;4929075;29;20504;-76
2021/05/21 06:06:21;;;;;;;5.03;2.80;;;;;;;10.78;77.58;98324.16;4912036;29;20020;-74
2021/05/21 06:08:46;;;;;;;7.82;3.38;;;;;;;10.54;78.43;98329.09;4918956;29;20035;-73
2021/05/21 06:11:12;;;;;;;5.53;2.80;;;;;;;10.53;78.49;98331.69;4936074;29;20028;-72
2021/05/21 06:13:37;;;;;;;10.30;3.22;;;;;;;10.69;78.16;98311.47;4935979;29;20051;-73
2021/05/21 06:16:02;;;;;;;6.95;3.15;;;;;;;10.76;77.57;98320.75;4936045;29;20097;-74
2021/05/21 06:18:28;;;;;;;3.90;2.60;;;;;;;10.97;76.52;98312.41;4934763;29;20027;-74
2021/05/21 06:20:53;;;;;;;4.68;2.97;;;;;;;11.20;76.25;98313.53;4935653;29;20035;-73
2021/05/21 06:23:18;;;;;;;7.28;2.30;;;;;;;11.64;74.63;98304.44;4939284;29;20019;-73
2021/05/21 06:28:10;;;;;;;5.05;2.33;;;;;;;11.99;72.52;98306.03;4947651;29;20105;-74
2021/05/21 06:30:35;;;;;;;8.20;2.78;;;;;;;11.61;74.37;98306.31;4953908;29;20106;-74
2021/05/21 06:33:01;;;;;;;6.78;2.78;;;;;;;11.58;75.23;98300.28;4951150;29;20571;-73
2021/05/21 06:35:27;;;;;;;19.45;6.03;;;;;;;11.64;75.62;98298.41;4940133;29;20034;-73
2021/05/21 06:37:54;;;;;;;11.18;4.00;;;;;;;11.95;74.28;98291.44;4954704;29;20440;-73
2021/05/21 06:40:19;;;;;;;4.53;2.88;;;;;;;11.91;74.09;98288.97;4954078;29;20022;-72
2021/05/21 06:42:45;;;;;;;9.32;2.97;;;;;;;12.31;73.31;98296.34;4954108;29;20400;-72
2021/05/21 06:45:11;;;;;;;5.53;2.90;;;;;;;12.07;74.45;98283.22;4954635;29;20023;-74
2021/05/21 06:47:36;;;;;;;11.95;3.30;;;;;;;12.30;74.59;98279.06;4954378;29;20023;-74
2021/05/21 06:50:03;;;;;;;20.00;8.68;;;;;;;12.37;74.04;98275.34;4928197;29;20531;-73
2021/05/21 06:52:28;;;;;;;4.65;2.83;;;;;;;12.34;73.89;98285.84;4934449;29;20024;-74
2021/05/21 06:54:53;;;;;;;4.18;2.72;;;;;;;12.16;74.13;98286.44;4935143;29;20059;-73
2021/05/21 06:57:19;;;;;;;4.43;2.80;;;;;;;12.17;74.30;98288.13;4918020;29;20485;-74
2021/05/21 06:59:45;;;;;;;5.72;2.35;;;;;;;12.44;72.84;98286.41;4935416;29;20477;-74
2021/05/21 07:02:10;;;;;;;6.07;2.30;;;;;;;12.70;71.23;98277.69;4918046;29;20079;-74
2021/05/21 07:04:36;;;;;;;3.97;3.00;;;;;;;12.85;72.11;98282.34;4916996;29;20128;-74
2021/05/21 07:07:02;;;;;;;4.28;2.58;;;;;;;12.60;72.61;98283.22;4917693;29;20032;-74
2021/05/21 07:09:27;;;;;;;5.82;2.75;;;;;;;12.67;72.35;98272.59;4934652;29;20075;-74
2021/05/21 07:11:53;;;;;;;8.13;2.45;;;;;;;13.05;68.65;98268.66;4934864;29;20023;-74
2021/05/21 07:14:18;;;;;;;4.32;2.38;;;;;;;13.35;68.36;98264.13;4935017;29;20106;-74
2021/05/21 07:16:44;;;;;;;8.18;2.42;;;;;;;13.44;67.50;98262.91;4933835;29;20705;-74
2021/05/21 07:19:13;;;;;;;4.25;1.77;;;;;;;13.84;64.39;98264.84;4934761;29;20027;-74
2021/05/21 07:21:39;;;;;;;6.32;1.90;;;;;;;14.14;62.96;98268.81;4934904;29;20043;-76
2021/05/21 07:24:05;;;;;;;3.35;1.80;;;;;;;14.23;60.82;98251.97;4934910;29;20035;-76
2021/05/21 07:26:31;;;;;;;3.20;2.05;;;;;;;14.15;60.84;98251.41;4933899;29;20046;-76
2021/05/21 07:28:57;;;;;;;5.78;1.67;;;;;;;14.43;59.38;98256.34;4933391;29;20027;-76
2021/05/21 07:31:26;;;;;;;2.40;1.50;;;;;;;14.53;57.74;98270.72;4934543;29;20110;-76
2021/05/21 07:33:52;;;;;;;33.78;4.32;;;;;;;14.67;54.20;98277.13;4931410;29;20062;-76
2021/05/21 07:36:17;;;;;;;17.77;2.88;;;;;;;14.62;53.21;98264.28;4934038;29;20039;-76
2021/05/21 07:38:42;;;;;;;2.83;1.50;;;;;;;14.73;52.28;98264.66;4931988;29;20027;-76
2021/05/21 07:41:08;;;;;;;8.13;1.15;;;;;;;14.73;51.03;98255.97;4932264;29;20024;-76
2021/05/21 07:43:33;;;;;;;1.48;0.80;;;;;;;14.72;51.33;98256.91;4932478;29;20082;-76
2021/05/21 07:45:59;;;;;;;2.30;0.90;;;;;;;14.76;50.83;98261.91;4916745;29;20024;-76
2021/05/21 07:48:26;;;;;;;5.05;1.13;;;;;;;14.76;51.03;98266.28;4934234;29;20164;-76
2021/05/21 07:50:52;;;;;;;1.20;0.90;;;;;;;14.87;49.50;98274.50;4933424;29;20016;-76
2021/05/21 07:53:17;;;;;;;1.55;0.80;;;;;;;14.95;49.87;98272.41;4934117;29;20500;-76
2021/05/21 07:55:44;;;;;;;0.70;0.70;;;;;;;14.99;49.78;98263.53;4934398;29;20111;-76
2021/05/21 07:58:11;;;;;;;2.78;1.40;;;;;;;14.99;50.17;98273.97;4917193;29;20508;-75
2021/05/21 08:00:37;;;;;;;1.95;0.70;;;;;;;15.03;49.82;98270.28;4934274;29;20029;-76
2021/05/21 08:03:02;;;;;;;2.72;0.90;;;;;;;15.11;49.92;98273.41;4933358;29;20043;-77
2021/05/21 08:05:27;;;;;;;1.92;1.00;;;;;;;15.24;50.49;98272.88;4934492;29;20020;-77
2021/05/21 08:07:53;;;;;;;3.28;1.10;;;;;;;15.32;49.88;98265.53;4934279;29;20030;-76
2021/05/21 08:10:18;;;;;;;2.05;0.90;;;;;;;15.33;48.78;98251.59;4934197;29;20103;-76
2021/05/21 08:12:43;;;;;;;8.32;1.50;;;;;;;15.36;49.07;98256.66;4934410;29;20026;-77
2021/05/21 08:15:10;;;;;;;13.05;8.60;;;;;;;15.45;50.20;98256.22;4933226;29;20027;-76
2021/05/21 08:17:35;;;;;;;2.30;1.02;;;;;;;15.39;49.74;98246.06;4933507;29;20043;-76
2021/05/21 08:20:02;;;;;;;7.80;1.05;;;;;;;15.40;49.57;98247.75;4935072;29;20497;-76
2021/05/21 08:22:28;;;;;;;2.10;1.38;;;;;;;15.35;48.95;98239.28;4938012;29;20035;-76
2021/05/21 08:24:54;;;;;;;4.63;0.95;;;;;;;15.36;49.87;98235.75;4937551;29;20032;-76
2021/05/21 08:27:19;;;;;;;3.63;0.93;;;;;;;15.24;49.43;98231.13;4937253;29;20024;-76
2021/05/21 08:29:45;;;;;;;1.75;1.05;;;;;;;15.38;48.58;98223.50;4937888;29;20548;-76
2021/05/21 08:32:10;;;;;;;1.30;1.15;;;;;;;15.36;49.28;98230.53;4937724;29;20378;-77
2021/05/21 08:34:35;;;;;;;3.88;0.90;;;;;;;15.43;50.42;98231.97;4937834;29;20127;-76
2021/05/21 08:37:01;;;;;;;1.95;1.10;;;;;;;15.27;49.48;98226.59;4936793;29;20470;-77
2021/05/21 08:39:27;;;;;;;5.63;0.90;;;;;;;15.40;49.81;98226.88;4937410;29;20024;-76
2021/05/21 08:41:54;;;;;;;2.17;1.45;;;;;;;15.59;49.19;98217.25;4937339;29;20092;-76
2021/05/21 08:44:20;;;;;;;2.58;1.00;;;;;;;15.59;49.18;98227.72;4937522;29;20103;-76
2021/05/21 08:46:46;;;;;;;1.30;1.00;;;;;;;15.56;49.86;98227.84;4937411;29;20433;-76
2021/05/21 08:49:13;;;;;;;5.38;1.00;;;;;;;15.47;50.05;98223.03;4936351;29;20028;-76
2021/05/21 08:51:39;;;;;;;0.80;0.80;;;;;;;15.59;49.18;98222.50;4937176;29;20103;-74
2021/05/21 08:54:06;;;;;;;2.90;0.80;;;;;;;15.63;47.61;98215.34;4938475;29;20115;-74
2021/05/21 08:56:33;;;;;;;2.08;0.73;;;;;;;15.71;47.48;98215.00;4937412;29;20481;-74
2021/05/21 08:58:58;;;;;;;3.65;1.17;;;;;;;15.94;48.59;98217.38;4937313;29;20485;-74
2021/05/21 09:01:26;;;;;;;1.48;0.93;;;;;;;15.83;48.84;98217.03;4936399;29;20078;-74
2021/05/21 09:04:00;;;;;;;1.23;0.90;;;;;;;15.83;48.96;98220.50;4937246;29;20421;-74
2021/05/21 09:06:25;;;;;;;15.70;8.20;;;;;;;15.83;48.93;98225.72;4937216;29;20581;-75
2021/05/21 09:08:55;;;;;;;2.78;1.52;;;;;;;15.85;49.57;98233.47;4937228;29;20043;-74
2021/05/21 09:11:23;;;;;;;;;;;;;;;15.96;49.81;98241.66;4928415;29;20019;-74
2021/05/21 09:13:52;;;;;;;2.47;0.90;;;;;;;15.87;49.91;98236.88;4934759;29;20260;-74
2021/05/21 09:16:22;;;;;;;3.90;0.98;;;;;;;15.88;50.06;98235.97;4920412;29;20035;-74
2021/05/21 09:19:05;;;;;;;1.25;1.10;;;;;;;15.68;50.39;98242.97;4937031;29;20036;-74
2021/05/21 09:22:02;;;;;;;1.85;1.25;;;;;;;15.54;50.85;98247.13;4936940;29;20477;-74
2021/05/21 09:24:35;;;;;;;6.22;1.85;;;;;;;15.73;49.93;98229.69;4936040;29;20389;-74
2021/05/21 09:27:01;;;;;;;2.53;1.20;;;;;;;15.64;50.93;98241.44;4937821;29;20051;-74
2021/05/21 09:29:40;;;;;;;4.68;1.40;;;;;;;15.66;51.78;98243.97;4956094;29;20497;-74
2021/05/21 09:32:25;;;;;;;2.45;0.93;;;;;;;15.58;52.87;98246.91;4955392;28;20035;-74
2021/05/21 09:35:24;;;;;;;5.35;0.88;;;;;;;15.59;50.36;98256.44;4955949;29;20400;-74
2021/05/21 09:37:52;;;;;;;1.60;0.83;;;;;;;15.83;51.53;98249.25;4893409;29;20039;-74
2021/05/21 09:40:21;;;;;;;4.40;1.98;;;;;;;15.78;50.73;98258.22;4947701;29;20558;-74
2021/05/21 09:42:52;;;;;;;1.88;1.08;;;;;;;15.71;50.32;98262.03;4955838;29;20031;-74
2021/05/21 09:45:17;;;;;;;6.35;1.02;;;;;;;15.63;50.51;98246.69;4936796;29;20102;-75
2021/05/21 09:47:53;;;;;;;2.72;1.45;;;;;;;15.59;49.64;98243.38;4935460;29;20136;-73
2021/05/21 09:50:28;;;;;;;3.58;1.00;;;;;;;15.65;50.72;98248.34;4947858;29;20031;-72
2021/05/21 09:53:11;;;;;;;3.33;0.98;;;;;;;15.67;51.54;98249.13;4955525;29;20027;-73
2021/05/21 09:55:43;;;;;;;4.40;0.80;;;;;;;15.55;49.98;98241.81;4955684;29;20034;-73
2021/05/21 09:58:23;;;;;;;1.45;0.73;;;;;;;15.61;50.82;98245.91;4935879;29;20174;-73
2021/05/21 10:01:09;;;;;;;3.33;0.90;;;;;;;15.56;50.77;98246.13;4935865;29;20028;-72
2021/05/21 10:03:36;;;;;;;1.60;0.70;;;;;;;15.52;50.80;98235.88;4936268;29;20031;-73
2021/05/21 10:06:02;;;;;;;2.92;0.90;;;;;;;15.55;52.14;98220.94;4934466;29;20392;-73
2021/05/21 10:08:29;;;;;;;1.20;0.70;;;;;;;15.33;51.93;98222.88;4936099;29;20027;-72
2021/05/21 10:10:54;;;;;;;10.73;5.43;;;;;;;15.31;52.09;98240.34;4950980;29;20019;-74
2021/05/21 10:13:20;;;;;;;1.63;1.17;;;;;;;15.45;52.54;98277.13;4955173;29;20102;-73
2021/05/21 10:15:46;;;;;;;4.88;0.98;;;;;;;15.34;51.97;98268.94;4948283;29;20091;-73
2021/05/21 10:18:13;;;;;;;4.78;0.90;;;;;;;15.41;53.10;98276.41;4935644;29;20528;-74
2021/05/21 10:20:44;;;;;;;1.52;0.88;;;;;;;15.51;52.53;98273.38;4935788;29;20038;-75
2021/05/21 10:23:12;;;;;;;2.40;1.10;;;;;;;15.50;52.55;98285.59;4934945;29;20067;-73
2021/05/21 10:25:39;;;;;;;3.20;0.60;;;;;;;15.52;52.83;98282.88;4935904;29;20015;-72
2021/05/21 10:28:08;;;;;;;4.32;0.70;;;;;;;15.48;52.72;98284.81;4935644;29;20031;-71
2021/05/21 10:33:12;;;;;;;12.35;6.75;;;;;;;15.59;51.88;98261.66;4915055;29;20056;-69
2021/05/21 10:35:37;;;;;;;1.63;1.10;;;;;;;15.49;51.02;98247.34;4916124;29;20511;-69
2021/05/21 10:38:21;;;;;;;4.18;1.00;;;;;;;15.52;50.80;98247.22;4915948;29;20028;-69
2021/05/21 10:41:13;;;;;;;1.05;0.85;;;;;;;15.61;50.52;98240.69;4916382;29;20024;-69
2021/05/21 10:43:49;;;;;;;2.40;0.90;;;;;;;15.76;50.99;98241.75;4916128;29;20099;-70
2021/05/21 10:46:17;;;;;;;0.90;0.70;;;;;;;15.94;50.70;98243.50;4915301;29;20079;-70
2021/05/21 10:48:52;;;;;;;2.03;1.10;;;;;;;15.99;51.08;98251.94;4916576;29;20024;-70
2021/05/21 10:51:18;;;;;;;2.90;0.88;;;;;;;16.03;51.96;98268.34;4915622;29;20020;-70
2021/05/21 10:53:46;;;;;;;2.22;0.60;;;;;;;16.28;51.37;98270.59;4904910;29;20048;-70
2021/05/21 10:56:12;;;;;;;0.88;0.80;;;;;;;16.32;51.18;98274.75;4907655;29;20028;-70
2021/05/21 10:58:55;;;;;;;2.13;0.88;;;;;;;16.33;52.03;98272.06;4907091;29;20036;-70
2021/05/21 11:01:25;;;;;;;3.00;0.80;;;;;;;16.53;51.92;98268.44;4904752;29;20028;-70
2021/05/21 11:03:56;;;;;;;2.42;0.90;;;;;;;16.42;51.05;98262.91;4904273;29;20050;-70
2021/05/21 11:06:23;;;;;;;6.95;3.42;;;;;;;16.45;51.56;98260.16;4907835;29;20044;-70
2021/05/21 11:08:48;;;;;;;0.95;0.60;;;;;;;16.35;52.39;98269.41;4902201;29;20032;-70
2021/05/21 11:11:15;;;;;;;2.42;0.80;;;;;;;16.63;51.67;98261.84;4906851;29;20462;-70
2021/05/21 11:13:41;;;;;;;6.80;1.00;;;;;;;16.59;52.06;98262.94;4907326;29;20497;-70
2021/05/21 11:16:14;;;;;;;1.38;0.70;;;;;;;16.41;52.54;98267.31;4904437;29;20040;-71
2021/05/21 11:18:48;;;;;;;1.00;0.90;;;;;;;16.51;52.27;98270.31;4907469;29;21369;-70
2021/05/21 11:21:18;;;;;;;1.02;0.80;;;;;;;16.40;51.98;98268.25;4904648;29;20059;-70
2021/05/21 11:23:46;;;;;;;0.85;0.68;;;;;;;16.49;52.37;98272.16;4903673;29;20028;-70
2021/05/21 11:26:16;;;;;;;2.85;1.10;;;;;;;16.54;52.41;98264.94;4904260;29;20036;-70
2021/05/21 11:28:47;;;;;;;;;;;;;;;16.65;52.37;98265.22;4906374;29;20039;-70
2021/05/21 11:31:24;;;;;;;1.23;1.13;;;;;;;16.88;52.34;98264.09;4904667;29;19923;-70
2021/05/21 11:33:51;;;;;;;3.83;1.00;;;;;;;16.77;49.75;98260.31;4902683;29;20039;-70
2021/05/21 11:36:19;;;;;;;2.45;1.45;;;;;;;16.85;50.00;98263.41;4901013;29;20025;-70
2021/05/21 11:38:44;;;;;;;1.13;0.70;;;;;;;16.57;49.12;98259.53;4905912;29;20615;-71
2021/05/21 11:41:12;;;;;;;0.60;0.60;;;;;;;16.68;48.93;98262.47;4905435;29;20028;-70
2021/05/21 11:43:46;;;;;;;6.90;0.90;;;;;;;16.89;48.71;98272.78;4906429;29;20046;-70
2021/05/21 11:46:20;;;;;;;4.38;0.90;;;;;;;16.98;47.28;98268.84;4903658;29;20040;-71
2021/05/21 11:48:48;;;;;;;4.47;0.75;;;;;;;16.96;48.07;98266.28;4905879;29;20498;-70
2021/05/21 11:51:25;;;;;;;1.67;0.80;;;;;;;17.39;48.69;98269.25;4906113;29;20363;-69
2021/05/21 11:53:56;;;;;;;3.47;0.75;;;;;;;17.59;47.37;98276.88;4907774;29;20512;-69
2021/05/21 11:56:30;;;;;;;0.55;0.50;;;;;;;17.71;46.75;98286.69;4906458;29;20035;-70
2021/05/21 11:59:12;;;;;;;1.35;0.80;;;;;;;17.69;47.67;98291.16;4911116;29;20075;-69
2021/05/21 12:01:45;;;;;;;1.23;0.70;;;;;;;17.18;47.72;98279.13;4904929;29;20032;-70
2021/05/21 12:04:10;;;;;;;2.30;0.80;;;;;;;17.09;47.67;98267.34;4910472;29;20036;-69
2021/05/21 12:06:37;;;;;;;1.08;0.80;;;;;;;16.49;48.57;98282.63;4903233;29;20501;-70
2021/05/21 12:09:07;;;;;;;1.40;0.80;;;;;;;16.45;48.63;98268.00;4903456;29;20068;-69
2021/05/21 12:11:33;;;;;;;1.13;0.80;;;;;;;16.70;48.38;98276.31;4908322;29;20059;-70
2021/05/21 12:14:03;;;;;;;2.55;0.93;;;;;;;16.48;48.85;98269.59;4910635;29;21305;-69
2021/05/21 12:16:30;;;;;;;1.30;0.70;;;;;;;16.14;47.87;98268.66;4906571;29;20028;-69
2021/05/21 12:18:56;;;;;;;0.73;0.70;;;;;;;16.12;48.48;98262.66;4909579;29;20151;-69
2021/05/21 12:21:34;;;;;;;0.60;0.60;;;;;;;16.16;48.31;98261.59;4906622;29;20027;-69
2021/05/21 12:23:59;;;;;;;3.38;0.60;;;;;;;16.40;48.06;98267.41;4907829;29;20515;-70
2021/05/21 12:26:30;;;;;;;0.82;0.60;;;;;;;16.50;47.89;98267.78;4906672;29;20040;-69
2021/05/21 12:28:59;;;;;;;0.60;0.60;;;;;;;16.55;47.69;98281.47;4910385;29;20032;-69
2021/05/21 12:31:33;;;;;;;3.20;1.00;;;;;;;16.62;47.88;98286.31;4904726;29;20024;-69
2021/05/21 12:34:00;;;;;;;6.82;0.93;;;;;;;16.72;47.94;98288.50;4910324;29;20035;-69
2021/05/21 12:36:28;;;;;;;1.05;0.60;;;;;;;16.75;45.74;98288.34;4906409;29;20032;-69
2021/05/21 12:38:56;;;;;;;3.00;0.90;;;;;;;16.41;47.37;98308.31;4910097;29;20401;-69
2021/05/21 12:41:31;;;;;;;5.53;3.90;;;;;;;16.39;47.00;98297.94;4906008;29;20115;-69
2021/05/21 12:44:12;;;;;;;0.82;0.82;;;;;;;16.31;46.96;98296.59;4909438;29;20052;-69
2021/05/21 12:46:51;;;;;;;4.75;1.30;;;;;;;16.18;47.22;98299.81;4905625;29;20038;-69
2021/05/21 12:49:37;;;;;;;2.33;0.75;;;;;;;16.38;47.29;98295.38;4909002;29;20035;-69
2021/05/21 12:52:07;;;;;;;2.53;0.80;;;;;;;16.88;46.95;98292.03;4908853;29;20036;-69
2021/05/21 12:54:43;;;;;;;0.88;0.70;;;;;;;16.77;46.00;98286.47;4908759;29;20027;-69
2021/05/21 12:57:21;;;;;;;1.58;0.80;;;;;;;16.96;46.66;98287.22;4904274;29;20028;-69
2021/05/21 12:59:49;;;;;;;0.65;0.65;;;;;;;16.37;46.21;98278.00;4907620;29;20036;-69
2021/05/21 13:02:25;;;;;;;2.10;0.80;;;;;;;16.35;45.66;98274.63;4908797;29;20028;-69
2021/05/21 13:05:01;;;;;;;3.95;0.85;;;;;;;16.09;46.13;98284.56;4909090;29;20040;-69
2021/05/21 13:07:27;;;;;;;3.13;0.82;;;;;;;16.38;46.61;98290.97;4908552;29;20164;-69
2021/05/21 13:09:57;;;;;;;1.15;1.00;;;;;;;16.23;46.43;98283.06;4905491;29;20028;-69
2021/05/21 13:12:33;;;;;;;2.17;1.48;;;;;;;16.36;46.41;98281.53;4907815;29;20383;-69
2021/05/21 13:14:59;;;;;;;2.03;1.45;;;;;;;16.29;45.84;98269.66;4909329;29;20060;-69
2021/05/21 13:17:31;;;;;;;5.82;1.73;;;;;;;16.06;46.31;98279.50;4908281;29;20028;-69
2021/05/21 13:20:01;;;;;;;3.30;2.15;;;;;;;16.32;46.86;98270.38;4906959;29;20037;-69
2021/05/21 13:22:30;;;;;;;1.25;0.90;;;;;;;15.98;46.38;98281.63;4907088;29;20095;-69
2021/05/21 13:25:00;;;;;;;0.90;0.55;;;;;;;16.05;46.56;98277.81;4908259;29;20048;-69
2021/05/21 13:27:30;;;;;;;0.70;0.70;;;;;;;15.89;46.79;98282.06;4909066;29;20039;-69
2021/05/21 13:29:55;;;;;;;;;;;;;;;15.56;47.88;98274.84;4903012;29;21363;-69
2021/05/21 13:32:22;;;;;;;4.65;1.00;;;;;;;15.57;47.93;98287.00;4908942;29;19929;-69
2021/05/21 13:34:47;;;;;;;2.85;1.30;;;;;;;15.52;47.40;98281.16;4909145;29;20070;-69
2021/05/21 13:37:13;;;;;;;0.85;0.70;;;;;;;15.46;48.28;98278.81;4908906;29;20136;-70
2021/05/21 13:39:38;;;;;;;3.58;1.10;;;;;;;15.49;48.28;98283.06;4902745;29;20032;-69
2021/05/21 13:42:04;;;;;;;5.32;1.65;;;;;;;15.40;47.94;98284.31;4905374;29;20024;-69
2021/05/21 13:44:30;;;;;;;3.42;1.45;;;;;;;15.57;47.64;98273.94;4891977;29;20044;-69
2021/05/21 13:46:56;;;;;;;5.28;3.03;;;;;;;15.73;47.65;98283.72;4908886;29;20036;-69
2021/05/21 13:49:24;;;;;;;7.18;2.33;;;;;;;15.52;48.03;98278.53;4907790;29;20028;-69
2021/05/21 13:51:54;;;;;;;4.93;1.92;;;;;;;15.06;48.89;98277.16;4888113;29;20048;-69
2021/05/21 13:54:21;;;;;;;2.78;1.10;;;;;;;14.97;48.92;98281.00;4908665;29;20032;-69
2021/05/21 13:56:46;;;;;;;1.30;0.90;;;;;;;15.12;49.02;98280.31;4908596;29;20119;-69
2021/05/21 13:59:12;;;;;;;4.13;1.50;;;;;;;15.22;49.00;98279.91;4907993;29;20083;-69
2021/05/21 14:01:38;;;;;;;3.45;1.35;;;;;;;15.38;49.42;98275.72;4908093;29;20406;-69
2021/05/21 14:04:04;;;;;;;3.25;1.48;;;;;;;15.03;49.73;98274.66;4907738;29;20137;-69
2021/05/21 14:06:29;;;;;;;23.63;11.02;;;;;;;14.64;50.36;98294.56;4891529;29;20036;-70
2021/05/21 14:08:54;;;;;;;14.07;5.30;;;;;;;14.67;50.83;98282.34;4891706;29;20032;-69
2021/05/21 14:11:20;;;;;;;9.95;6.10;;;;;;;14.54;51.53;98298.47;4906577;29;20107;-69
2021/05/21 14:13:45;;;;;;;34.20;16.83;;;;;;;14.65;52.43;98293.69;4902351;29;20120;-69
2021/05/21 14:16:11;;;;;;;6.50;1.33;;;;;;;14.59;51.56;98278.28;4902492;29;20142;-69
2021/05/21 14:18:36;;;;;;;62.53;34.88;;;;;;;14.61;51.41;98268.66;4907533;29;20036;-69
2021/05/21 14:21:02;;;;;;;73.50;39.08;;;;;;;14.36;52.34;98267.94;4903570;29;20032;-69
2021/05/21 14:23:27;;;;;;;22.00;12.02;;;;;;;14.30;52.54;98260.38;4908290;29;20034;-69
2021/05/21 14:25:53;;;;;;;39.97;21.80;;;;;;;14.40;52.34;98264.28;4905754;29;20030;-69
2021/05/21 14:28:20;;;;;;;16.10;10.25;;;;;;;14.29;53.40;98250.84;4903024;29;20036;-69
2021/05/21 14:30:46;;;;;;;13.05;6.85;;;;;;;14.45;52.07;98254.50;4887578;29;20032;-69
2021/05/21 14:33:12;;;;;;;2.05;1.55;;;;;;;14.35;52.04;98245.38;4902506;29;20040;-69
2021/05/21 14:35:38;;;;;;;1.63;0.93;;;;;;;14.13;52.54;98261.91;4903997;29;20038;-69
2021/05/21 14:38:03;;;;;;;2.15;1.00;;;;;;;14.07;52.76;98251.75;4907806;29;20516;-68
2021/05/21 14:40:28;;;;;;;1.60;0.95;;;;;;;14.05;53.19;98252.72;4907982;29;20060;-69
2021/05/21 14:42:54;;;;;;;1.27;0.80;;;;;;;14.17;52.45;98256.56;4890826;29;20163;-69
2021/05/21 14:45:19;;;;;;;3.15;0.90;;;;;;;14.08;53.04;98243.03;4890874;29;20036;-68
2021/05/21 14:47:45;;;;;;;0.85;0.68;;;;;;;14.12;52.91;98233.31;4907887;29;20036;-69
2021/05/21 14:50:12;;;;;;;1.92;0.90;;;;;;;14.11;53.02;98229.84;4907886;29;20048;-68
2021/05/21 14:52:39;;;;;;;2.65;2.10;;;;;;;14.17;53.20;98235.72;4885040;29;20030;-69
2021/05/21 14:55:07;;;;;;;3.53;0.93;;;;;;;13.98;53.49;98231.28;4908119;29;20028;-69
2021/05/21 14:57:32;;;;;;;1.95;0.75;;;;;;;13.80;54.46;98237.22;4907412;29;20505;-69
2021/05/21 14:59:58;;;;;;;1.00;1.00;;;;;;;13.97;53.81;98224.34;4907639;29;20028;-69
2021/05/21 15:02:26;;;;;;;2.28;0.80;;;;;;;13.86;54.52;98221.34;4907623;29;20409;-69
2021/05/21 15:04:59;;;;;;;2.70;0.95;;;;;;;13.86;54.64;98195.31;4907892;29;20263;-69
2021/05/21 15:07:25;;;;;;;1.10;0.70;;;;;;;13.94;54.84;98195.84;4907333;29;20036;-69
2021/05/21 15:09:53;;;;;;;1.00;0.88;;;;;;;13.72;55.37;98189.81;4907480;29;20039;-69
2021/05/21 15:12:21;;;;;;;4.50;1.00;;;;;;;13.79;55.14;98193.88;4905977;29;20036;-69
2021/05/21 15:14:47;;;;;;;0.70;0.70;;;;;;;13.90;54.47;98207.28;4901563;29;20393;-69
2021/05/21 15:17:26;;;;;;;2.00;1.25;;;;;;;13.86;54.16;98195.31;4907303;29;20047;-69
2021/05/21 15:25:03;;;;;;;2.85;1.77;;;;;;;13.68;54.91;98242.91;4907648;29;20040;-69
2021/05/21 15:27:29;;;;;;;0.80;0.80;;;;;;;13.81;54.99;98238.91;4907091;29;20461;-69
2021/05/21 15:29:55;;;;;;;0.98;0.95;;;;;;;13.71;55.35;98232.38;4906941;29;20102;-69
2021/05/21 15:32:21;;;;;;;1.55;0.70;;;;;;;13.78;54.90;98228.59;4902513;29;20515;-69
2021/05/21 15:34:46;;;;;;;0.70;0.70;;;;;;;13.66;54.38;98222.13;4901109;29;20105;-70
2021/05/21 15:37:14;;;;;;;4.55;1.20;;;;;;;13.61;54.74;98211.91;4901000;29;20047;-70
2021/05/21 15:39:40;;;;;;;2.00;1.67;;;;;;;13.53;54.85;98195.72;4907059;29;20793;-70
2021/05/21 15:47:39;;;;;;;5.63;0.60;;;;;;;13.80;55.18;98190.34;4848077;29;20099;-70
2021/05/21 15:55:21;;;;;;;0.88;0.47;;;;;;;13.49;55.79;98201.13;4906833;29;20390;-70
2021/05/21 15:58:09;;;;;;;0.60;0.60;;;;;;;13.32;55.70;98201.78;4903820;29;20028;-70
2021/05/21 16:00:35;;;;;;;1.52;0.70;;;;;;;13.45;56.50;98192.59;4906726;29;20168;-70
2021/05/21 16:03:00;;;;;;;1.15;0.65;;;;;;;13.38;56.46;98183.31;4906870;29;20039;-68
2021/05/21 16:05:25;;;;;;;1.23;0.60;;;;;;;13.33;56.00;98170.50;4906960;29;20043;-69
2021/05/21 16:07:52;;;;;;;1.50;0.90;;;;;;;13.35;56.46;98175.66;4906913;29;20031;-68
2021/05/21 16:10:25;;;;;;;1.23;0.98;;;;;;;13.53;56.25;98164.50;4906852;29;20036;-68
2021/05/21 16:12:50;;;;;;;0.50;0.50;;;;;;;13.67;55.37;98150.09;4906765;29;20046;-70
2021/05/21 16:15:15;;;;;;;4.28;1.10;;;;;;;13.84;55.74;98147.66;4906916;29;20028;-69